Romanovka, Russia
Current Conditions -  °F | °C
As of 8:00 PM on Sunday 23 Nov 2014 (Local Time) from UIAA Reporting Station
Clear Clear  
Wind Chill:   Ceiling: Unl
Heat Index:   Visibility: 6mi
Dew Point:   Wind: 4mph
Humidity: 73%   Direction: NA
Pressure: 30.15"   Gusts: NA
Location:  53.2°N, 112.78°E
Report Text: UIAA 231200Z VRB02MPS 9999 SKC M13/M17 Q1021 NOSIG RMK QFE70729CLRD70
Loading
Personal Weather Stations






























Interactive Weather Map New forecast layout! Learn more

10-Day Weather Forecast

Advertisements
Track Severe Weather on mobile